Time;durP1;ratioP1;P1;durP2;ratioP2;P2;SDS_P1;SDS_P2;PMS_P1;PMS_P2;Temp;Humidity;BMP_temperature;BMP_pressure;BME280_temperature;BME280_humidity;BME280_pressure;Samples;Min_cycle;Max_cycle;Signal;HPM_P1;HPM_P2
2022/03/09 00:01:53;;;;;;;11.55;7.55;;;;;;;;;;5029760;28;20476;-65
2022/03/09 00:04:19;;;;;;;17.35;8.98;;;;;;;;;;5017332;28;20030;-67
2022/03/09 00:06:45;;;;;;;16.23;7.90;;;;;;;;;;5025432;28;20029;-67
2022/03/09 00:09:13;;;;;;;16.98;7.32;;;;;;;;;;5024292;28;20105;-67
2022/03/09 00:11:39;;;;;;;17.10;8.93;;;;;;;;;;5017603;28;20042;-65
2022/03/09 00:14:05;;;;;;;16.15;8.40;;;;;;;;;;5029189;28;20028;-67
2022/03/09 00:16:31;;;;;;;16.58;8.30;;;;;;;;;;5019216;28;20026;-67
2022/03/09 00:18:57;;;;;;;19.77;8.63;;;;;;;;;;5023448;28;20069;-67
2022/03/09 00:21:23;;;;;;;15.55;7.75;;;;;;;;;;5025515;28;20033;-67
2022/03/09 00:23:49;;;;;;;15.25;8.02;;;;;;;;;;5016141;28;20103;-68
2022/03/09 00:26:15;;;;;;;17.80;8.80;;;;;;;;;;5029004;28;20026;-68
2022/03/09 00:28:41;;;;;;;17.13;10.07;;;;;;;;;;5020234;28;20060;-67
2022/03/09 00:31:07;;;;;;;16.27;8.88;;;;;;;;;;5021869;28;20034;-67
2022/03/09 00:33:33;;;;;;;15.65;8.88;;;;;;;;;;5026851;28;20026;-67
2022/03/09 00:35:59;;;;;;;21.15;10.50;;;;;;;;;;5015870;28;20127;-67
2022/03/09 00:38:25;;;;;;;13.77;8.30;;;;;;;;;;5027429;28;20022;-67
2022/03/09 00:40:51;;;;;;;18.98;8.65;;;;;;;;;;5020957;28;20104;-67
2022/03/09 00:43:18;;;;;;;17.42;9.07;;;;;;;;;;5019996;28;20154;-67
2022/03/09 00:45:44;;;;;;;16.52;8.50;;;;;;;;;;5028017;28;20441;-67
2022/03/09 00:48:10;;;;;;;17.45;8.55;;;;;;;;;;5015294;28;20025;-64
2022/03/09 00:50:36;;;;;;;17.45;9.35;;;;;;;;;;5032240;28;20030;-67
2022/03/09 00:53:02;;;;;;;14.75;7.82;;;;;;;;;;5029703;28;20474;-67
2022/03/09 00:55:28;;;;;;;17.67;9.93;;;;;;;;;;5018553;28;20452;-68
2022/03/09 00:57:54;;;;;;;13.43;7.72;;;;;;;;;;5028993;28;20395;-68
2022/03/09 01:00:20;;;;;;;16.00;7.97;;;;;;;;;;5017105;28;20092;-68
2022/03/09 01:02:46;;;;;;;16.65;8.68;;;;;;;;;;5024233;28;20415;-67
2022/03/09 01:05:13;;;;;;;26.73;10.00;;;;;;;;;;5023958;28;20434;-68
2022/03/09 01:07:39;;;;;;;18.83;10.65;;;;;;;;;;5017198;28;20038;-66
2022/03/09 01:10:05;;;;;;;16.80;9.63;;;;;;;;;;5028518;28;20037;-67
2022/03/09 01:12:31;;;;;;;19.17;7.88;;;;;;;;;;5018231;28;20057;-66
2022/03/09 01:14:57;;;;;;;16.83;7.78;;;;;;;;;;5022364;28;20049;-66
2022/03/09 01:17:23;;;;;;;13.02;7.68;;;;;;;;;;5025481;28;20029;-66
2022/03/09 01:19:49;;;;;;;15.05;7.38;;;;;;;;;;5015269;28;20084;-67
2022/03/09 01:22:15;;;;;;;14.27;7.80;;;;;;;;;;5028047;28;20507;-67
2022/03/09 01:24:41;;;;;;;13.75;7.85;;;;;;;;;;5019001;28;20026;-66
2022/03/09 01:27:07;;;;;;;15.70;7.47;;;;;;;;;;5021127;28;20064;-68
2022/03/09 01:29:33;;;;;;;17.80;8.45;;;;;;;;;;5026261;28;20036;-68
2022/03/09 01:31:59;;;;;;;16.63;9.52;;;;;;;;;;5015075;28;20022;-67
2022/03/09 01:34:25;;;;;;;22.52;9.75;;;;;;;;;;5026100;28;20593;-68
2022/03/09 01:36:51;;;;;;;12.30;7.75;;;;;;;;;;5020531;28;20017;-67
2022/03/09 01:39:17;;;;;;;17.80;8.07;;;;;;;;;;5001506;28;20057;-67
2022/03/09 01:41:43;;;;;;;14.75;7.85;;;;;;;;;;5009723;28;20025;-68
2022/03/09 01:44:17;;;;;;;13.20;6.75;;;;;;;;;;5014779;28;20032;-68
2022/03/09 01:46:43;;;;;;;13.43;6.97;;;;;;;;;;5031711;28;20091;-69
2022/03/09 01:49:10;;;;;;;12.23;6.65;;;;;;;;;;5020180;28;20442;-68
2022/03/09 01:51:38;;;;;;;14.57;7.00;;;;;;;;;;5025161;28;20033;-68
2022/03/09 01:54:04;;;;;;;13.23;6.50;;;;;;;;;;5009853;28;20117;-66
2022/03/09 01:56:30;;;;;;;12.63;6.85;;;;;;;;;;5017338;28;20101;-67
2022/03/09 01:58:56;;;;;;;14.30;6.45;;;;;;;;;;5023185;28;20057;-67
2022/03/09 02:01:22;;;;;;;12.77;7.78;;;;;;;;;;5028258;28;20056;-67
2022/03/09 02:03:48;;;;;;;13.05;6.72;;;;;;;;;;5018528;28;20034;-66
2022/03/09 02:06:14;;;;;;;19.25;7.13;;;;;;;;;;5031665;28;20060;-67
2022/03/09 02:11:27;;;;;;;13.82;6.85;;;;;;;;;;5021769;28;20044;-68
2022/03/09 02:13:53;;;;;;;14.60;7.60;;;;;;;;;;5013606;28;20033;-68
2022/03/09 02:16:19;;;;;;;14.27;7.22;;;;;;;;;;5019599;28;20587;-67
2022/03/09 02:18:45;;;;;;;14.23;7.20;;;;;;;;;;5027397;28;20028;-67
2022/03/09 02:21:15;;;;;;;11.68;5.85;;;;;;;;;;5026163;28;20028;-66
2022/03/09 02:23:41;;;;;;;13.07;6.90;;;;;;;;;;5019360;28;20033;-67
2022/03/09 02:26:07;;;;;;;14.98;7.22;;;;;;;;;;5031558;28;20029;-67
2022/03/09 02:28:39;;;;;;;14.63;7.85;;;;;;;;;;5021364;28;20067;-67
2022/03/09 02:31:05;;;;;;;14.13;7.55;;;;;;;;;;5024105;28;20029;-67
2022/03/09 02:33:31;;;;;;;15.70;7.50;;;;;;;;;;5029018;28;20025;-67
2022/03/09 02:35:57;;;;;;;16.85;8.13;;;;;;;;;;5018416;28;20472;-67
2022/03/09 02:38:23;;;;;;;13.68;7.60;;;;;;;;;;5012115;28;20057;-67
2022/03/09 02:40:49;;;;;;;14.57;7.90;;;;;;;;;;5023239;28;20115;-67
2022/03/09 02:43:15;;;;;;;14.68;8.05;;;;;;;;;;5022408;28;20026;-67
2022/03/09 02:45:41;;;;;;;17.40;8.20;;;;;;;;;;5030196;28;20392;-67
2022/03/09 02:48:07;;;;;;;14.00;7.35;;;;;;;;;;5000374;28;20030;-67
2022/03/09 02:50:33;;;;;;;15.25;7.50;;;;;;;;;;5027959;28;20034;-67
2022/03/09 02:52:59;;;;;;;12.35;7.10;;;;;;;;;;5025926;28;20102;-69
2022/03/09 02:55:25;;;;;;;14.15;7.55;;;;;;;;;;5020964;28;20141;-68
2022/03/09 02:57:51;;;;;;;12.50;7.20;;;;;;;;;;5030765;28;20049;-68
2022/03/09 03:00:17;;;;;;;14.93;7.38;;;;;;;;;;5018338;28;20031;-69
2022/03/09 03:02:43;;;;;;;16.65;7.53;;;;;;;;;;5026996;28;20037;-67
2022/03/09 03:05:09;;;;;;;14.70;7.53;;;;;;;;;;5007641;28;20281;-67
2022/03/09 03:07:36;;;;;;;17.67;7.55;;;;;;;;;;5019783;28;20041;-68
2022/03/09 03:10:02;;;;;;;10.80;6.82;;;;;;;;;;5062707;22;20041;-70
2022/03/09 03:12:28;;;;;;;11.70;6.57;;;;;;;;;;5071715;28;20044;-71
2022/03/09 03:14:54;;;;;;;12.75;6.95;;;;;;;;;;5053055;28;20029;-70
2022/03/09 03:17:20;;;;;;;13.70;6.63;;;;;;;;;;5061262;28;20391;-70
2022/03/09 03:19:46;;;;;;;14.77;7.35;;;;;;;;;;5069983;28;20016;-70
2022/03/09 03:22:12;;;;;;;11.60;6.55;;;;;;;;;;5057007;28;20028;-70
2022/03/09 03:24:37;;;;;;;12.90;6.13;;;;;;;;;;5048626;28;20029;-70
2022/03/09 03:27:03;;;;;;;10.05;6.43;;;;;;;;;;5064144;28;20518;-70
2022/03/09 03:29:29;;;;;;;10.50;5.72;;;;;;;;;;5059557;28;20541;-70
2022/03/09 03:31:55;;;;;;;13.57;6.63;;;;;;;;;;5070012;28;20224;-71
2022/03/09 03:34:21;;;;;;;15.18;6.85;;;;;;;;;;5057859;28;20056;-70
2022/03/09 03:36:48;;;;;;;16.02;7.03;;;;;;;;;;5065219;28;20025;-70
2022/03/09 03:39:14;;;;;;;12.75;6.40;;;;;;;;;;5065323;28;20033;-70
2022/03/09 03:41:40;;;;;;;14.27;7.32;;;;;;;;;;5057827;28;20033;-71
2022/03/09 03:44:06;;;;;;;12.75;7.13;;;;;;;;;;5069687;28;20031;-71
2022/03/09 03:46:33;;;;;;;14.55;7.20;;;;;;;;;;5059260;28;20059;-70
2022/03/09 03:48:59;;;;;;;15.05;6.47;;;;;;;;;;5063131;28;20040;-71
2022/03/09 03:51:26;;;;;;;13.32;6.45;;;;;;;;;;5066361;28;20025;-70
2022/03/09 03:53:51;;;;;;;10.60;5.95;;;;;;;;;;5069698;28;20493;-71
2022/03/09 03:56:17;;;;;;;10.15;6.05;;;;;;;;;;5057303;28;20017;-70
2022/03/09 03:58:43;;;;;;;18.65;8.20;;;;;;;;;;5065456;28;20082;-70
2022/03/09 04:01:09;;;;;;;12.90;6.07;;;;;;;;;;5046124;28;20032;-71
2022/03/09 04:03:35;;;;;;;11.70;6.72;;;;;;;;;;5057773;28;20493;-71
2022/03/09 04:06:02;;;;;;;11.98;6.47;;;;;;;;;;5069938;28;20474;-70
2022/03/09 04:08:28;;;;;;;12.02;5.68;;;;;;;;;;5058390;28;20085;-70
2022/03/09 04:10:54;;;;;;;12.27;5.70;;;;;;;;;;5063448;28;20495;-70
2022/03/09 04:13:20;;;;;;;9.45;5.15;;;;;;;;;;5064942;28;20028;-71
2022/03/09 04:15:46;;;;;;;10.85;5.32;;;;;;;;;;5056529;28;20100;-71
2022/03/09 04:18:12;;;;;;;10.18;5.32;;;;;;;;;;5068903;28;20021;-70
2022/03/09 04:20:38;;;;;;;14.88;6.93;;;;;;;;;;5041032;28;20024;-70
2022/03/09 04:23:08;;;;;;;10.57;5.65;;;;;;;;;;5061530;28;20215;-70
2022/03/09 04:25:34;;;;;;;10.75;6.05;;;;;;;;;;5067161;28;20032;-70
2022/03/09 04:28:00;;;;;;;13.38;6.80;;;;;;;;;;5055690;28;20028;-70
2022/03/09 04:30:26;;;;;;;12.25;6.78;;;;;;;;;;5066972;28;20431;-70
2022/03/09 04:32:52;;;;;;;11.45;5.85;;;;;;;;;;5060801;28;20029;-70
2022/03/09 04:35:18;;;;;;;15.35;7.03;;;;;;;;;;5060053;28;20032;-71
2022/03/09 04:37:44;;;;;;;15.07;6.82;;;;;;;;;;5068325;28;20033;-70
2022/03/09 04:40:11;;;;;;;13.85;7.35;;;;;;;;;;5055439;28;20028;-70
2022/03/09 04:42:37;;;;;;;14.48;6.72;;;;;;;;;;5065376;28;20470;-70
2022/03/09 04:45:03;;;;;;;11.48;6.93;;;;;;;;;;5062345;28;20100;-69
2022/03/09 04:47:29;;;;;;;12.00;7.00;;;;;;;;;;5057975;28;20037;-70
2022/03/09 04:49:55;;;;;;;13.75;6.30;;;;;;;;;;5068589;28;20433;-70
2022/03/09 04:52:21;;;;;;;12.25;6.10;;;;;;;;;;5056631;28;20032;-70
2022/03/09 04:54:47;;;;;;;9.68;5.90;;;;;;;;;;5063623;28;20088;-70
2022/03/09 04:57:14;;;;;;;10.73;5.40;;;;;;;;;;5063615;28;20146;-70
2022/03/09 04:59:40;;;;;;;11.75;5.70;;;;;;;;;;5056354;28;20161;-70
2022/03/09 05:02:06;;;;;;;11.38;6.07;;;;;;;;;;5068052;28;20031;-70
2022/03/09 05:04:32;;;;;;;11.77;6.40;;;;;;;;;;5057512;28;20107;-70
2022/03/09 05:06:58;;;;;;;12.10;6.60;;;;;;;;;;5044060;28;20033;-70
2022/03/09 05:09:23;;;;;;;11.88;6.03;;;;;;;;;;5064644;28;20028;-70
2022/03/09 05:11:49;;;;;;;11.88;7.05;;;;;;;;;;5055104;28;20064;-70
2022/03/09 05:14:15;;;;;;;12.23;6.72;;;;;;;;;;5067757;28;20022;-70
2022/03/09 05:16:41;;;;;;;12.40;6.15;;;;;;;;;;5058839;28;20028;-71
2022/03/09 05:19:07;;;;;;;14.82;6.13;;;;;;;;;;5060928;28;20426;-71
2022/03/09 05:21:33;;;;;;;10.02;5.97;;;;;;;;;;5066186;28;20029;-70
2022/03/09 05:23:59;;;;;;;11.48;5.55;;;;;;;;;;5036966;28;20028;-70
2022/03/09 05:26:25;;;;;;;9.68;6.32;;;;;;;;;;5066548;28;20017;-70
2022/03/09 05:28:51;;;;;;;11.07;7.28;;;;;;;;;;5060292;28;20040;-70
2022/03/09 05:31:18;;;;;;;13.65;7.18;;;;;;;;;;5058838;28;20470;-70
2022/03/09 05:33:44;;;;;;;12.98;7.20;;;;;;;;;;5067164;28;20394;-72
2022/03/09 05:36:10;;;;;;;11.85;5.97;;;;;;;;;;5055186;28;20025;-70
2022/03/09 05:38:36;;;;;;;13.18;6.70;;;;;;;;;;5065115;28;20029;-71
2022/03/09 05:41:02;;;;;;;13.13;7.10;;;;;;;;;;5061728;28;20451;-70
2022/03/09 05:43:28;;;;;;;10.15;5.75;;;;;;;;;;5057581;28;20036;-70
2022/03/09 05:45:54;;;;;;;12.80;6.20;;;;;;;;;;5068427;28;20115;-71
2022/03/09 05:48:20;;;;;;;12.38;6.38;;;;;;;;;;5038974;28;20510;-71
2022/03/09 05:50:46;;;;;;;14.63;5.95;;;;;;;;;;5064323;28;20107;-70
2022/03/09 05:53:12;;;;;;;10.75;5.97;;;;;;;;;;5063345;28;20033;-71
2022/03/09 05:55:38;;;;;;;10.88;4.97;;;;;;;;;;5056757;28;20402;-71
2022/03/09 05:58:04;;;;;;;10.77;4.82;;;;;;;;;;5068919;28;20016;-71
2022/03/09 06:00:30;;;;;;;9.07;4.95;;;;;;;;;;5057844;28;20016;-71
2022/03/09 06:02:56;;;;;;;11.68;5.82;;;;;;;;;;5062047;28;20040;-71
2022/03/09 06:05:22;;;;;;;14.75;7.10;;;;;;;;;;5064363;28;20077;-71
2022/03/09 06:07:49;;;;;;;16.83;8.73;;;;;;;;;;5054402;28;20107;-73
2022/03/09 06:10:15;;;;;;;19.05;8.57;;;;;;;;;;5033906;28;20040;-72
2022/03/09 06:12:41;;;;;;;22.27;10.82;;;;;;;;;;5058334;28;20485;-71
2022/03/09 06:15:07;;;;;;;17.50;10.20;;;;;;;;;;5059146;28;20126;-72
2022/03/09 06:17:42;;;;;;;21.67;9.00;;;;;;;;;;5047747;28;20036;-71
2022/03/09 06:20:08;;;;;;;17.85;8.48;;;;;;;;;;5053816;28;20037;-70
2022/03/09 06:22:34;;;;;;;10.93;5.78;;;;;;;;;;5064523;28;20467;-71
2022/03/09 06:25:00;;;;;;;11.98;5.80;;;;;;;;;;5059441;28;20033;-72
2022/03/09 06:27:26;;;;;;;9.63;5.63;;;;;;;;;;5056787;28;20039;-72
2022/03/09 06:29:54;;;;;;;9.65;5.72;;;;;;;;;;5068004;28;20030;-71
2022/03/09 06:32:20;;;;;;;8.60;5.72;;;;;;;;;;5056003;28;20036;-72
2022/03/09 06:34:46;;;;;;;13.05;6.43;;;;;;;;;;5063724;28;20021;-73
2022/03/09 06:37:12;;;;;;;10.57;6.25;;;;;;;;;;5045445;28;20025;-72
2022/03/09 06:39:38;;;;;;;11.35;5.97;;;;;;;;;;5056250;28;20025;-71
2022/03/09 06:42:04;;;;;;;12.98;5.25;;;;;;;;;;5068409;28;20025;-71
2022/03/09 06:44:31;;;;;;;10.88;5.28;;;;;;;;;;5056924;28;20036;-71
2022/03/09 06:46:58;;;;;;;11.35;5.80;;;;;;;;;;5065142;28;20503;-71
2022/03/09 06:49:24;;;;;;;10.13;5.65;;;;;;;;;;5067673;28;20028;-72
2022/03/09 06:51:50;;;;;;;10.55;5.57;;;;;;;;;;5057509;28;20498;-70
2022/03/09 06:54:16;;;;;;;9.70;5.85;;;;;;;;;;5070226;28;20479;-72
2022/03/09 06:56:42;;;;;;;9.77;5.90;;;;;;;;;;5061229;28;20025;-71
2022/03/09 06:59:08;;;;;;;13.55;6.20;;;;;;;;;;5063413;28;20017;-71
2022/03/09 07:01:34;;;;;;;10.70;5.95;;;;;;;;;;5068654;28;20021;-72
2022/03/09 07:03:59;;;;;;;9.45;6.32;;;;;;;;;;5057389;28;20488;-73
2022/03/09 07:06:25;;;;;;;11.90;6.05;;;;;;;;;;5069010;28;20031;-73
2022/03/09 07:08:52;;;;;;;13.68;5.63;;;;;;;;;;5062733;28;20052;-72
2022/03/09 07:11:17;;;;;;;11.48;5.25;;;;;;;;;;5061324;28;20037;-73
2022/03/09 07:13:43;;;;;;;10.02;5.53;;;;;;;;;;5070033;28;20390;-72
2022/03/09 07:16:09;;;;;;;10.65;5.68;;;;;;;;;;5039321;28;20027;-72
2022/03/09 07:18:35;;;;;;;12.48;6.20;;;;;;;;;;5067173;28;20032;-73
2022/03/09 07:21:01;;;;;;;9.57;5.75;;;;;;;;;;5063890;28;20020;-72
2022/03/09 07:23:27;;;;;;;14.70;7.00;;;;;;;;;;5059356;28;20032;-74
2022/03/09 07:25:56;;;;;;;9.27;5.93;;;;;;;;;;5070144;28;20031;-73
2022/03/09 07:28:28;;;;;;;11.35;6.93;;;;;;;;;;5040454;28;20073;-73
2022/03/09 07:30:54;;;;;;;14.30;6.55;;;;;;;;;;5064703;28;20086;-73
2022/03/09 07:33:20;;;;;;;15.63;8.27;;;;;;;;;;5066415;28;20036;-72
2022/03/09 07:35:46;;;;;;;12.35;7.18;;;;;;;;;;5057763;28;20028;-73
2022/03/09 07:38:13;;;;;;;16.00;7.38;;;;;;;;;;5070828;28;20106;-73
2022/03/09 07:40:39;;;;;;;10.30;5.30;;;;;;;;;;5060558;28;20013;-73
2022/03/09 07:43:05;;;;;;;8.10;5.30;;;;;;;;;;5044676;28;20511;-72
2022/03/09 07:45:31;;;;;;;8.20;5.35;;;;;;;;;;5065924;28;20267;-73
2022/03/09 07:47:57;;;;;;;12.30;6.38;;;;;;;;;;5055043;28;20053;-73
2022/03/09 07:50:23;;;;;;;11.52;5.60;;;;;;;;;;5066607;28;20091;-72
2022/03/09 07:52:49;;;;;;;11.40;5.55;;;;;;;;;;5037130;28;20287;-74
2022/03/09 07:55:16;;;;;;;8.10;5.15;;;;;;;;;;5059657;28;20501;-73
2022/03/09 07:57:42;;;;;;;9.73;4.95;;;;;;;;;;5067199;28;20031;-73
2022/03/09 08:00:08;;;;;;;9.73;6.25;;;;;;;;;;5055489;28;20075;-73
2022/03/09 08:02:34;;;;;;;10.52;5.93;;;;;;;;;;5066587;28;20035;-72
2022/03/09 08:05:00;;;;;;;15.45;5.55;;;;;;;;;;5062800;28;20051;-73
2022/03/09 08:07:26;;;;;;;15.07;6.57;;;;;;;;;;5041602;28;20025;-72
2022/03/09 08:09:52;;;;;;;11.73;5.53;;;;;;;;;;5069156;28;20134;-73
2022/03/09 08:12:18;;;;;;;11.30;6.35;;;;;;;;;;5056841;28;20070;-73
2022/03/09 08:14:44;;;;;;;15.85;6.28;;;;;;;;;;5047082;28;20029;-71
2022/03/09 08:17:10;;;;;;;12.88;6.00;;;;;;;;;;5046607;28;20028;-75
2022/03/09 08:19:36;;;;;;;11.02;5.53;;;;;;;;;;5057967;28;20051;-75
2022/03/09 08:22:02;;;;;;;13.40;6.65;;;;;;;;;;5069353;28;20085;-74
2022/03/09 08:24:28;;;;;;;14.10;5.22;;;;;;;;;;5058471;28;20113;-74
2022/03/09 08:26:54;;;;;;;12.98;5.78;;;;;;;;;;5063848;28;20052;-75
2022/03/09 08:29:20;;;;;;;16.00;6.63;;;;;;;;;;5059724;28;20040;-74
2022/03/09 08:31:46;;;;;;;9.80;5.65;;;;;;;;;;5068563;28;20036;-74
2022/03/09 08:34:12;;;;;;;9.38;5.50;;;;;;;;;;5055739;28;20020;-75
2022/03/09 08:36:38;;;;;;;11.00;5.60;;;;;;;;;;5065609;28;20036;-74
2022/03/09 08:39:04;;;;;;;13.07;5.90;;;;;;;;;;5045360;28;20020;-75
2022/03/09 08:41:30;;;;;;;14.20;6.45;;;;;;;;;;5057602;28;20029;-73
2022/03/09 08:43:56;;;;;;;10.98;6.30;;;;;;;;;;5050103;28;20497;-71
2022/03/09 08:46:22;;;;;;;12.90;6.70;;;;;;;;;;5050624;28;20426;-69
2022/03/09 08:48:48;;;;;;;17.77;7.47;;;;;;;;;;5032485;28;20068;-70
2022/03/09 08:51:17;;;;;;;11.88;6.00;;;;;;;;;;5050134;28;20044;-70
2022/03/09 08:53:43;;;;;;;11.73;6.05;;;;;;;;;;5049831;28;20087;-70
2022/03/09 08:56:10;;;;;;;12.75;6.43;;;;;;;;;;5049992;28;20072;-70
2022/03/09 08:58:36;;;;;;;15.02;7.15;;;;;;;;;;5051803;28;20431;-70
2022/03/09 09:01:03;;;;;;;12.82;6.15;;;;;;;;;;5052240;28;20028;-71
2022/03/09 09:03:29;;;;;;;10.32;5.40;;;;;;;;;;5051969;28;20368;-71
2022/03/09 09:05:55;;;;;;;15.38;7.35;;;;;;;;;;5052236;28;20032;-71
2022/03/09 09:08:21;;;;;;;11.43;6.60;;;;;;;;;;5051741;28;20044;-70
2022/03/09 09:10:47;;;;;;;11.85;6.00;;;;;;;;;;5082844;22;20383;-67
2022/03/09 09:13:13;;;;;;;12.07;5.57;;;;;;;;;;5089065;28;20439;-68
2022/03/09 09:15:39;;;;;;;11.93;6.30;;;;;;;;;;5091855;28;20107;-68
2022/03/09 09:18:06;;;;;;;11.07;6.25;;;;;;;;;;5092020;28;20024;-68
2022/03/09 09:20:33;;;;;;;11.52;5.90;;;;;;;;;;5073311;28;20036;-68
2022/03/09 09:22:59;;;;;;;11.73;6.30;;;;;;;;;;5091458;28;20073;-69
2022/03/09 09:25:25;;;;;;;11.40;6.05;;;;;;;;;;5091942;28;20106;-69
2022/03/09 09:27:52;;;;;;;13.77;6.40;;;;;;;;;;5091991;28;20024;-69
2022/03/09 09:30:19;;;;;;;10.20;6.10;;;;;;;;;;5091937;28;20063;-68
2022/03/09 09:32:45;;;;;;;12.65;5.70;;;;;;;;;;5091389;28;20081;-67
2022/03/09 09:35:12;;;;;;;12.38;6.05;;;;;;;;;;5091396;28;20032;-69
2022/03/09 09:37:38;;;;;;;8.15;5.20;;;;;;;;;;5091332;28;20086;-68
2022/03/09 09:40:07;;;;;;;11.65;6.50;;;;;;;;;;5072907;28;20038;-68
2022/03/09 09:42:33;;;;;;;12.02;6.05;;;;;;;;;;5091093;28;20477;-70
2022/03/09 09:45:00;;;;;;;10.30;6.22;;;;;;;;;;5091042;28;20444;-68
2022/03/09 09:47:27;;;;;;;9.00;5.80;;;;;;;;;;5091235;28;20047;-69
2022/03/09 09:49:53;;;;;;;8.70;5.47;;;;;;;;;;5091261;28;20024;-70
2022/03/09 09:52:20;;;;;;;15.23;6.22;;;;;;;;;;5091607;28;20042;-68
2022/03/09 09:54:49;;;;;;;11.85;5.47;;;;;;;;;;5090826;28;20020;-68
2022/03/09 09:57:16;;;;;;;9.10;5.60;;;;;;;;;;5091286;28;20047;-70
2022/03/09 09:59:43;;;;;;;9.60;5.20;;;;;;;;;;5069480;28;20021;-68
2022/03/09 10:02:09;;;;;;;13.65;6.30;;;;;;;;;;5070595;28;20112;-69
2022/03/09 10:04:36;;;;;;;8.45;5.30;;;;;;;;;;5070547;28;20060;-69
2022/03/09 10:07:02;;;;;;;11.18;5.28;;;;;;;;;;5071057;28;20035;-70
2022/03/09 10:09:35;;;;;;;8.95;5.35;;;;;;;;;;5071146;28;20101;-69
2022/03/09 10:12:01;;;;;;;13.82;6.05;;;;;;;;;;5052986;28;20114;-68
2022/03/09 10:14:44;;;;;;;9.32;5.80;;;;;;;;;;5070899;28;20495;-68
2022/03/09 10:17:12;;;;;;;9.10;5.43;;;;;;;;;;5053411;28;20035;-68
2022/03/09 10:19:39;;;;;;;9.55;5.80;;;;;;;;;;5072300;28;20116;-68
2022/03/09 10:22:34;;;;;;;14.25;6.05;;;;;;;;;;5056873;28;20040;-68
2022/03/09 10:25:01;;;;;;;13.25;6.25;;;;;;;;;;5057753;28;20091;-69
2022/03/09 10:27:39;;;;;;;12.25;6.15;;;;;;;;;;5074927;28;20055;-67
2022/03/09 10:30:10;;;;;;;9.70;6.00;;;;;;;;;;5074725;28;20152;-68
2022/03/09 10:32:45;;;;;;;8.18;5.78;;;;;;;;;;5075123;28;20071;-70
2022/03/09 10:35:12;;;;;;;10.80;5.53;;;;;;;;;;5074614;28;20024;-70
2022/03/09 10:37:38;;;;;;;11.75;5.90;;;;;;;;;;5083596;28;20042;-68
2022/03/09 10:40:18;;;;;;;10.10;5.93;;;;;;;;;;5095011;28;20020;-69
2022/03/09 10:42:44;;;;;;;9.73;5.40;;;;;;;;;;5076525;28;20513;-68
2022/03/09 10:45:11;;;;;;;11.63;5.88;;;;;;;;;;5094960;28;20454;-68
2022/03/09 10:47:41;;;;;;;10.23;5.03;;;;;;;;;;5094766;28;20020;-70
2022/03/09 10:50:11;;;;;;;9.55;5.43;;;;;;;;;;5094486;28;20067;-69
2022/03/09 10:52:52;;;;;;;9.23;5.03;;;;;;;;;;5076397;28;20024;-68
2022/03/09 10:55:35;;;;;;;8.77;4.70;;;;;;;;;;5094706;28;20028;-68
2022/03/09 10:58:17;;;;;;;9.25;3.95;;;;;;;;;;5094760;28;20016;-67
2022/03/09 11:00:54;;;;;;;11.63;5.28;;;;;;;;;;5094447;28;20474;-67
2022/03/09 11:03:21;;;;;;;9.23;5.07;;;;;;;;;;5094212;28;20020;-69
2022/03/09 11:05:48;;;;;;;9.43;4.63;;;;;;;;;;5094768;28;20030;-68
2022/03/09 11:08:15;;;;;;;11.27;4.60;;;;;;;;;;5094196;28;20370;-67
2022/03/09 11:10:44;;;;;;;11.35;4.70;;;;;;;;;;5094276;28;20093;-70
2022/03/09 11:13:10;;;;;;;8.35;4.47;;;;;;;;;;5094210;28;20027;-67
2022/03/09 11:15:36;;;;;;;7.45;4.18;;;;;;;;;;5076267;28;20569;-68
2022/03/09 11:18:02;;;;;;;9.20;3.70;;;;;;;;;;5094322;28;20052;-68
2022/03/09 11:20:28;;;;;;;11.85;4.85;;;;;;;;;;5094182;28;20032;-69
2022/03/09 11:22:54;;;;;;;12.80;4.35;;;;;;;;;;5094090;28;20024;-68
2022/03/09 11:25:24;;;;;;;6.22;3.63;;;;;;;;;;5093893;28;20035;-68
2022/03/09 11:27:53;;;;;;;6.18;3.47;;;;;;;;;;5094021;28;20082;-70
2022/03/09 11:30:22;;;;;;;4.90;3.03;;;;;;;;;;5093444;28;20482;-68
2022/03/09 11:32:50;;;;;;;9.07;3.50;;;;;;;;;;5093404;28;20097;-68
2022/03/09 11:35:32;;;;;;;7.18;3.92;;;;;;;;;;5093732;28;20500;-67
2022/03/09 11:37:58;;;;;;;10.27;4.35;;;;;;;;;;5093507;28;20028;-67
2022/03/09 11:40:24;;;;;;;8.15;4.20;;;;;;;;;;5093839;28;20020;-68
2022/03/09 11:42:50;;;;;;;7.10;3.75;;;;;;;;;;5093751;28;20031;-68
2022/03/09 11:45:29;;;;;;;6.28;3.95;;;;;;;;;;5093485;28;20024;-68
2022/03/09 11:47:58;;;;;;;10.65;4.85;;;;;;;;;;5092555;28;20375;-69
2022/03/09 11:50:25;;;;;;;6.88;4.82;;;;;;;;;;5092139;28;20458;-68
2022/03/09 11:52:55;;;;;;;8.55;4.90;;;;;;;;;;5093110;28;20024;-68
2022/03/09 11:55:21;;;;;;;9.00;5.10;;;;;;;;;;5092251;28;20020;-68
2022/03/09 11:57:51;;;;;;;7.65;4.60;;;;;;;;;;5093193;28;20528;-68
2022/03/09 12:00:20;;;;;;;7.68;3.85;;;;;;;;;;5075100;28;20489;-70
2022/03/09 12:02:56;;;;;;;14.45;4.57;;;;;;;;;;5092533;28;20031;-67
2022/03/09 12:05:25;;;;;;;9.23;4.38;;;;;;;;;;5088187;28;20092;-67
2022/03/09 12:07:52;;;;;;;8.00;4.70;;;;;;;;;;5075758;28;20038;-68
2022/03/09 12:10:21;;;;;;;7.20;4.00;;;;;;;;;;5071306;28;20516;-67
2022/03/09 12:13:06;;;;;;;8.38;4.78;;;;;;;;;;5080933;28;20024;-69
2022/03/09 12:15:36;;;;;;;9.10;6.22;;;;;;;;;;5092585;28;20073;-68
2022/03/09 12:18:22;;;;;;;7.32;4.40;;;;;;;;;;5092900;28;20012;-69
2022/03/09 12:20:49;;;;;;;13.65;4.65;;;;;;;;;;5088554;28;20269;-66
2022/03/09 12:23:16;;;;;;;9.73;5.57;;;;;;;;;;5072374;28;20025;-68
2022/03/09 12:25:43;;;;;;;10.50;4.60;;;;;;;;;;5054586;28;20073;-68
2022/03/09 12:28:25;;;;;;;8.95;5.30;;;;;;;;;;5072739;28;20036;-70
2022/03/09 12:30:52;;;;;;;;;;;;;;;;;;5086007;28;20020;-68
2022/03/09 12:33:28;;;;;;;11.35;5.13;;;;;;;;;;5092323;28;20290;-69
2022/03/09 12:36:03;;;;;;;8.60;4.57;;;;;;;;;;5092144;28;20032;-70
2022/03/09 12:38:38;;;;;;;9.48;4.82;;;;;;;;;;5092245;28;20032;-68
2022/03/09 12:41:04;;;;;;;9.85;5.25;;;;;;;;;;5074197;28;20044;-68
2022/03/09 12:43:49;;;;;;;7.70;4.63;;;;;;;;;;5091317;28;20111;-68
2022/03/09 12:46:15;;;;;;;5.53;3.60;;;;;;;;;;5074102;28;20047;-66
2022/03/09 12:48:41;;;;;;;8.05;4.35;;;;;;;;;;5092301;28;20085;-68
2022/03/09 12:51:08;;;;;;;6.63;4.55;;;;;;;;;;5092325;28;20101;-65
2022/03/09 12:53:34;;;;;;;7.65;4.88;;;;;;;;;;5090236;28;20051;-67
2022/03/09 12:56:35;;;;;;;8.57;4.47;;;;;;;;;;5085297;28;20143;-67
2022/03/09 12:59:09;;;;;;;9.30;5.15;;;;;;;;;;5003345;28;20029;-66
2022/03/09 13:01:35;;;;;;;10.60;4.82;;;;;;;;;;5062786;28;20398;-68
2022/03/09 13:04:04;;;;;;;8.35;4.85;;;;;;;;;;5091446;28;20042;-68
2022/03/09 13:06:36;;;;;;;9.68;5.00;;;;;;;;;;5092294;28;20032;-68
2022/03/09 13:09:03;;;;;;;7.65;4.55;;;;;;;;;;5092268;28;20453;-68
2022/03/09 13:11:36;;;;;;;7.93;5.05;;;;;;;;;;5091781;28;20036;-71
2022/03/09 13:14:18;;;;;;;6.78;3.85;;;;;;;;;;5091719;28;20385;-68
2022/03/09 13:16:45;;;;;;;10.95;4.03;;;;;;;;;;5091715;28;20081;-68
2022/03/09 13:19:11;;;;;;;5.22;3.47;;;;;;;;;;5092066;28;20024;-68
2022/03/09 13:21:38;;;;;;;7.57;4.57;;;;;;;;;;5091812;28;20020;-68
2022/03/09 13:24:05;;;;;;;6.00;4.13;;;;;;;;;;5091635;28;20027;-69
2022/03/09 13:26:39;;;;;;;7.85;4.30;;;;;;;;;;5091966;28;20030;-68
2022/03/09 13:29:14;;;;;;;8.52;4.50;;;;;;;;;;5073101;28;20545;-70
2022/03/09 13:31:43;;;;;;;6.03;3.72;;;;;;;;;;5091095;28;20020;-67
2022/03/09 13:34:17;;;;;;;8.75;2.90;;;;;;;;;;5091541;28;20077;-68
2022/03/09 13:36:43;;;;;;;4.25;2.80;;;;;;;;;;5091595;28;20020;-67
2022/03/09 13:39:10;;;;;;;6.55;3.45;;;;;;;;;;5073157;28;20043;-67
2022/03/09 13:41:38;;;;;;;5.40;3.20;;;;;;;;;;5092801;28;20118;-68
2022/03/09 13:44:04;;;;;;;4.80;2.75;;;;;;;;;;5096267;28;20016;-68
2022/03/09 13:46:32;;;;;;;5.90;3.60;;;;;;;;;;5092831;28;20081;-69
2022/03/09 13:49:11;;;;;;;4.53;3.03;;;;;;;;;;5093355;28;20076;-69
2022/03/09 13:51:38;;;;;;;7.00;3.83;;;;;;;;;;5094325;28;20083;-68
2022/03/09 13:54:04;;;;;;;6.80;3.53;;;;;;;;;;5096793;28;20529;-68
2022/03/09 13:56:33;;;;;;;4.90;3.55;;;;;;;;;;5099079;28;20427;-67
2022/03/09 13:58:59;;;;;;;6.07;3.58;;;;;;;;;;5097713;28;20458;-67
2022/03/09 14:01:31;;;;;;;5.07;3.70;;;;;;;;;;5097574;28;20031;-70
2022/03/09 14:04:00;;;;;;;6.38;3.75;;;;;;;;;;5082697;28;20020;-68
2022/03/09 14:06:28;;;;;;;6.13;3.70;;;;;;;;;;5098110;28;20020;-68
2022/03/09 14:08:55;;;;;;;8.98;3.72;;;;;;;;;;5098161;28;20020;-69
2022/03/09 14:11:22;;;;;;;6.25;4.28;;;;;;;;;;5097945;28;20032;-67
2022/03/09 14:14:01;;;;;;;6.13;4.05;;;;;;;;;;5079316;28;20470;-70
2022/03/09 14:16:31;;;;;;;10.88;5.03;;;;;;;;;;5097783;28;20501;-68
2022/03/09 14:18:58;;;;;;;10.38;4.78;;;;;;;;;;5097846;28;20054;-69
2022/03/09 14:21:24;;;;;;;8.00;4.45;;;;;;;;;;5097973;28;20016;-68
2022/03/09 14:23:53;;;;;;;6.93;4.40;;;;;;;;;;5095628;28;20099;-67
2022/03/09 14:26:20;;;;;;;6.13;3.97;;;;;;;;;;5096175;28;20012;-69
2022/03/09 14:28:46;;;;;;;8.50;4.45;;;;;;;;;;5095689;28;20016;-66
2022/03/09 14:31:12;;;;;;;6.65;4.25;;;;;;;;;;5096521;28;20028;-67
2022/03/09 14:33:38;;;;;;;6.47;3.65;;;;;;;;;;5097206;28;20073;-68
2022/03/09 14:36:06;;;;;;;6.35;3.67;;;;;;;;;;5096965;28;20020;-67
2022/03/09 14:38:34;;;;;;;5.78;3.50;;;;;;;;;;5097230;28;20035;-69